This is the latest recevied weather packets stored in our database for station/object HS3UAA-1. If no packets are shown the sender has not sent any weather packets the latest 10 day(s).
| Time | Temp. | Humidity | Pressure | Rain* | Wind** | Luminosity | Snow |
|---|---|---|---|---|---|---|---|
| 1777468074 | 35° C | 38% | 995 hPa | - | - | 0 W/m² | - |
| 1777467676 | 36.11° C | 36% | 995 hPa | - | - | 0 W/m² | - |
| 1777467354 | 36.11° C | 36% | 995 hPa | - | - | 0 W/m² | - |
| 1777466860 | 36.67° C | 35% | 995 hPa | - | - | 0 W/m² | - |
| 1777466538 | 36.67° C | 34% | 995 hPa | - | - | 0 W/m² | - |
| 1777466216 | 36.67° C | 34% | 995 hPa | - | - | 0 W/m² | - |
| 1777465894 | 36.11° C | 35% | 995 hPa | - | - | 0 W/m² | - |
| 1777465407 | 36.67° C | 33% | 995 hPa | - | - | 0 W/m² | - |
| 1777465085 | 36.67° C | 34% | 995 hPa | - | - | 0 W/m² | - |
| 1777464763 | 36.67° C | 34% | 995 hPa | - | - | 0 W/m² | - |
| 1777464441 | 35.56° C | 34% | 995 hPa | - | - | 0 W/m² | - |
| 1777464119 | 35.56° C | 34% | 995 hPa | - | - | 0 W/m² | - |
| 1777463797 | 35.56° C | 34% | 995 hPa | - | - | 0 W/m² | - |
| 1777463475 | 35.56° C | 34% | 995 hPa | - | - | 0 W/m² | - |
| 1777463153 | 35.56° C | 34% | 995 hPa | - | - | 0 W/m² | - |
| 1777462831 | 35° C | 34% | 994 hPa | - | - | 0 W/m² | - |
| 1777462509 | 34.44° C | 35% | 994 hPa | - | - | 0 W/m² | - |
| 1777462187 | 34.44° C | 35% | 994 hPa | - | - | 0 W/m² | - |
| 1777461864 | 34.44° C | 35% | 994 hPa | - | - | 0 W/m² | - |
| 1777461543 | 33.89° C | 35% | 994 hPa | - | - | 0 W/m² | - |
| 1777458059 | 28.89° C | 41% | 994 hPa | - | - | 0 W/m² | - |
| 1777457737 | 28.89° C | 39% | 993 hPa | - | - | 0 W/m² | - |
| 1777457415 | 28.33° C | 41% | 993 hPa | - | - | 0 W/m² | - |
| 1777457093 | 28.33° C | 43% | 993 hPa | - | - | 0 W/m² | - |
| 1777456771 | 28.33° C | 40% | 993 hPa | - | - | 0 W/m² | - |
* Rain since midnight (hover to see other rain measurements)
** Current wind speed in m/s (hover to see current wind gust speed)